Terminal Aerodrome Forecast
Issued by NWS

Home | Current Version | Previous Version | Graphics & Text | Print | Product List | Glossary On
Versions: 1 2 3 4 5 6 7 8 9 10 11 12 13 14 15 16 17 18
000
FTUS43 KMPX 150535
TAFRNH
TAF
KRNH 150535Z 1506/1606 05003KT 4SM BR SCT250
     FM150900 00000KT 2SM BR SCT003
      TEMPO 1509/1513 1/2SM FG VV002
     FM151300 07005KT 3SM BR SCT008
     FM151400 08006KT P6SM BKN250
     FM151700 08008KT P6SM SCT040
     FM160000 10006KT P6SM OVC100=

USA.gov is the U.S. government's official web portal to all federal, state and local government web resources and services.